South Arkansas Regional At Goodwin Field
KELD : now visible

Airfield :











YOU CAN JOIN US ON...

 
LOGIN :

Register | Disclaimer

   EN    FR    IT 

 









Legend :    VFR   Marginal VFR   IFR   Intensive IFR   Very Intensive IFR
Visi :
Ceiling :
>= 8 km
>= 3000ft
5 to 8 km
1000 to 3000 ft
1500m to 5 km
500 to 1000 ft
800 to 1500m
200 to 500 ft
< 800m
< 200 ft
Symbols :   Thunderstorms  Fog  Heavy snow  Heavy precipitations  Wind > 20 kt







- Airport Elevation : 277 ft
- IATA code : ELD


KELD - South Arkansas Regional At Goodwin Field

CURRENT METAR :
  • 162053Z AUTO 07008KT 10SM FEW065 SCT085 34/21 A2999 RMK AO2 SLP151 60000 T03440206 56026

EXPIRED METARs :
  • 161953Z AUTO 07011KT 10SM FEW065 36/21 A3001 RMK AO2 SLP158 T03610206
  • 161853Z AUTO 08007KT 10SM BKN065 36/21 A3004 RMK AO2 RAB41E51 SLP167 P0000 T03610206

TAF KELD
Valid from the 16 at 18:00 until the 17 at 18:00 UTC


161739Z 1618/1718 10007KT P6SM FEW060
FM170100 VRB03KT P6SM SKC
FM171600 09005KT P6SM FEW050
No reported NOTAMs for that airfield.



MET'MAP, your aeronautical weather chart ! - Copyright ORBIFLY December 2007 - Disclaimer

ORBIFLY MET'MAP TEAM :

Programming & Development : Alexandra Zaïnal
Concept & Development : Baudouin d'Aumeries
Co-Development & Prog : Marc-Olivier Méhu
Technical & hardware support : Manuel Goepfert

Contact : metmap@orbifly.com




SOURCES & CREDITS :

   NOAA       Earth
Advisory